新東京国際空港の過去48時間の天気

新東京国際空港 (Tokyo/New Tokyo Intl)

現在時刻: 1/22 03:04 JST (1/21 18:04 UTC) 以下の時間は現地時間です。

過去48時間のMETAR気象情報
時間 風向 風速(m/s) 視程 気温(℃) 湿度(%) 気圧(hPa) 天気現象
22 02:30 4 10km以上 3 65 1018
22 02:00 北北西 4 10km以上 2 75 1019
22 01:30 5 10km以上 3 70 1018
22 01:00 3 10km以上 2 75 1018
22 00:30 4 10km以上 4 70 1018
22 00:00 北北西 4 10km以上 4 70 1018
21 23:30 5 10km以上 4 75 1018
21 23:00 6 10km以上 4 75 1017
21 22:30 6 10km以上 4 87 1018
21 22:00 5 10km以上 4 87 1017
21 21:30 4 10km以上 5 93 1017
21 21:00 北北西 2 10km以上 5 93 1017
21 20:30 北北西 2 10km以上 5 93 1017
21 20:00 北北西 2 10km以上 3 93 1016 地霧
21 19:30 南南西 1 10km以上 4 93 1016 地霧
21 19:00 不定 1 10km以上 4 87 1015
21 18:30 南東 1 10km以上 5 87 1015
21 18:00 南東 2 10km以上 5 87 1015
21 17:30 南南東 3 10km以上 6 87 1014
21 17:00 南南東 2 10km以上 7 81 1014
21 16:30 東南東 3 10km以上 8 76 1014
21 16:00 東南東 2 10km以上 9 71 1014
21 15:30 2 10km以上 9 71 1014
21 15:00 3 10km以上 10 66 1014
21 14:30 2 10km以上 10 66 1014
21 14:00 不定 1 10km以上 10 62 1014
21 13:30 2 10km以上 10 62 1014
21 13:00 不定 1 10km以上 10 66 1014
21 12:30 不定 1 10km以上 10 66 1014
21 12:00 不定 1 10km以上 10 66 1015
21 11:30 不定 1 9,000m 9 71 1015
21 11:00 北西 2 9,000m 8 71 1016
21 10:30 西北西 2 9,000m 7 81 1016
21 10:00 北西 3 9,000m 5 87 1017
21 09:30 北北西 3 9,000m 5 93 1017 周辺で霧
21 09:00 北北西 4 7,000m 3 100 1017
21 08:30 北西 2 5,000m 2 100 1016 もや
21 08:16 北西 2 5,000m 1 100 1016 もや
21 08:06 不定 1 4,500m 0 100 1016 散在した霧 もや
21 08:00 不定 1 3,200m 0 100 1016 散在した霧 もや
21 07:34 不定 1 1,800m -1 100 1016 散在した霧 もや
21 07:30 不定 1 1,200m -1 93 1016 散在した霧 もや
21 07:18 北西 1 1,200m -2 100 1016 散在した霧 もや
21 07:08 西北西 1 1,500m -2 100 1016 散在した霧 もや
21 07:00 北西 1 1,500m -2 100 1016 散在した霧 もや
21 06:49 西北西 1 1,000m -1 93 1016 氷霧
21 06:30 西北西 1 800m -1 100 1016 氷霧
21 06:19 西 1 400m -1 100 1016 氷霧
21 06:00 西 1 400m -1 100 1015 氷霧
21 05:48 西北西 1 400m -1 93 1015 氷霧
21 05:38 西北西 1 400m -1 100 1015 氷霧
21 05:30 北西 1 400m -1 100 1015 氷霧
21 05:17 静穏 0 200m -1 100 1015 氷霧
21 05:09 北西 1 200m -1 100 1015 氷霧
21 05:00 北西 1 200m -1 100 1015 氷霧
21 04:30 北西 2 100m 0 93 1015 氷霧
RJAA 211730Z 35008KT 9999 FEW035 BKN170 03/M03 Q1018 NOSIG RMK 1CU035 7AC170 A3008
RJAA 211700Z 33008KT 9999 FEW030 SCT035 BKN/// 02/M02 Q1019 NOSIG
RJAA 211630Z 35009KT 9999 FEW030 03/M02 Q1018 NOSIG RMK 1CU030 A3008
RJAA 211600Z 35006KT 9999 FEW030 SCT/// 02/M02 Q1018 NOSIG
RJAA 211530Z 01008KT 9999 FEW030 SCT035 04/M01 Q1018 NOSIG RMK 1CU030 3SC035 A3008
RJAA 211500Z 34008KT 9999 FEW030 BKN035 04/M01 Q1018 NOSIG RMK 1CU030 7SC035 A3008
RJAA 211430Z 35009KT 9999 FEW030 BKN/// 04/M00 Q1018 NOSIG
RJAA 211400Z 01011KT 9999 FEW020 BKN/// 04/00 Q1017 NOSIG
RJAA 211330Z 01011KT 9999 FEW020 BKN025 BKN/// 04/02 Q1018 NOSIG RMK 1CU020 6SC025 A3006
RJAA 211300Z 01010KT 9999 FEW025 BKN/// 04/02 Q1017 NOSIG RMK 1CU025 A3005
RJAA 211230Z 01008KT 9999 FEW025 SCT/// 05/04 Q1017 NOSIG
RJAA 211200Z 33003KT 9999 FEW025 SCT/// 05/04 Q1017 NOSIG RMK 1CU025 A3004
RJAA 211130Z 33004KT 9999 FEW025 SCT/// 05/04 Q1017 NOSIG
RJAA 211100Z 34003KT 9999 MIFG FEW030 03/02 Q1016 NOSIG RMK 1CU030 A3002
RJAA 211030Z 20001KT 9999 MIFG FEW030 04/03 Q1016 BECMG 01005KT
RJAA 211000Z VRB01KT 9999 FEW030 04/02 Q1015 BECMG 01005KT RMK 1CU030 A2999
RJAA 210930Z 14002KT 9999 FEW030 05/03 Q1015 BECMG 01005KT RMK 1CU030 A2998
RJAA 210900Z 14003KT 9999 FEW030 05/03 Q1015 NOSIG RMK 1CU030 A2997
RJAA 210830Z 16005KT 9999 FEW030 06/04 Q1014 NOSIG RMK 1CU030 A2996
RJAA 210800Z 15004KT 9999 FEW030 07/04 Q1014 NOSIG RMK 1CU030 A2996
RJAA 210730Z 12005KT 9999 FEW030 08/04 Q1014 NOSIG RMK 1CU030 A2995 LIGHT PS TURB OBS AT 0702Z 15NM S NARITA BTN 12000FT AND 13000FT IN CMB A320 JJP513
RJAA 210700Z 11004KT 9999 FEW030 09/04 Q1014 NOSIG RMK 1CU030 A2995
RJAA 210630Z 09004KT 9999 FEW025 09/04 Q1014 NOSIG RMK 1CU025 A2995
RJAA 210600Z 08005KT 9999 FEW025 SCT050 10/04 Q1014 NOSIG RMK 1CU025 3SC050 A2995 MOD TURB OBS AT 0545Z 10NM N BINKS 8000FT B738 ANA2178
RJAA 210530Z 09004KT 060V140 9999 FEW025 BKN030 BKN050 10/04 Q1014 NOSIG RMK 1CU025 5CU030 7SC050 A2995 MOD ICING OBS AT 0506Z 30NM SE NARITA BTN 9000FT AND 6000FT IN DES A333 CRK608
RJAA 210500Z VRB02KT 9999 FEW025 BKN030 BKN050 10/03 Q1014 BECMG 12005KT RMK 1CU025 5CU030 7SC050 A2995
RJAA 210430Z 17004KT 140V210 9999 FEW025 SCT040 10/03 Q1014 NOSIG RMK 1CU025 4SC040 A2995
RJAA 210400Z VRB02KT 9999 FEW020 SCT030 BKN040 10/04 Q1014 BECMG 12005KT
RJAA 210330Z VRB02KT 9999 FEW020 BKN045 BKN/// 10/04 Q1014 NOSIG
RJAA 210300Z VRB02KT 9999 FEW020 BKN045 10/04 Q1015 NOSIG RMK 1CU020 6SC045 A2998
RJAA 210230Z VRB01KT 9000 FEW020 09/04 Q1015 BECMG 04005KT
RJAA 210200Z 31003KT 260V030 9000 FEW020 08/03 Q1016 NOSIG RMK 1CU020 A3001
RJAA 210130Z 30004KT 270V330 9000 FEW030 07/04 Q1016 NOSIG RMK 1CU030 A3002
RJAA 210100Z 31005KT 9000 FEW015 BKN035 05/03 Q1017 NOSIG RMK 1CU015 5SC035 A3004
RJAA 210030Z 33005KT 9000 VCFG FEW001 05/04 Q1017 NOSIG RMK 1ST001 A3004
RJAA 210000Z 33008KT 7000 FEW015 03/03 Q1017 NOSIG RMK 1CU015 A3003
RJAA 202330Z 32004KT 5000 BR FEW001 02/02 Q1016 NOSIG RMK 1ST001 A3003
RJAA 202316Z 31003KT 5000 R34L/P1800N R34R/1000VP1800U BR FEW001 01/01 Q1016 RMK 1ST001 A3003
RJAA 202306Z VRB02KT 4500 R34L/P1800N R34R/0550V1100N BCFG BR FEW001 00/00 Q1016 RMK 2ST001 A3003 FG ON RWY34R
RJAA 202300Z VRB01KT 3200 R34L/P1800N R34R/0400V0800U BCFG BR FEW001 M00/M00 Q1016 BECMG 6000 NSW
RJAA 202234Z VRB02KT 1800 R16R/0800VP1800U R16L/0300V1100D BCFG BR SCT001 M01/M01 Q1016 RMK 4ST001 A3002 BCFG IS FREEZING AND ON RWY34R AND RWY16L
RJAA 202230Z VRB02KT 1200 R16R/0750VP1800U R16L/0300V1100N BCFG BR SCT001 M01/M02 Q1016 BECMG 6000 NSW RMK 4ST001 A3002 BCFG IS FREEZING AND ON ALL RWY
RJAA 202218Z 31002KT 1200 R16R/0750VP1800U R16L/0300V0500N BCFG BR SCT001 M02/M02 Q1016 RMK 4ST001 A3002 BCFG IS FREEZING AND ON ALL RWY
RJAA 202208Z 30002KT 1500 R16R/0600VP1800D R16L/0300V0450D BCFG BR SCT001 M02/M02 Q1016 RMK 4ST001 A3002 BCFG IS FREEZING AND ON ALL RWY
RJAA 202200Z 32002KT 1500 R16R/0350V1600U R16L/0450N BCFG BR BKN001 M02/M02 Q1016 BECMG 6000 NSW FEW001 SCT003
RJAA 202149Z 30001KT 1000 R16R/0500V0750U R16L/0350V0700U FZFG BKN001 M01/M02 Q1016 RMK 5ST001 A3001 0500W
RJAA 202130Z 29001KT 0800 R16R/0400N R16L/0400V0600U FZFG BKN001 M01/M01 Q1016 BECMG FM2200 3000 BR FEW001 SCT003
RJAA 202119Z 27002KT 0400 R16R/0500V0600N R16L/0400V0650D FZFG BKN001 M01/M01 Q1016 RMK 7ST001 A3000 0800E
RJAA 202100Z 28002KT 0400 R16R/0550V0800N R16L/0300V0550N FZFG BKN001 M01/M01 Q1015 BECMG FM2200 2000 BR SCT001 BKN005
RJAA 202048Z 30002KT 0400 R16R/0700V1000N R16L/0350V0700D FZFG BKN001 M01/M02 Q1015 RMK 7ST001 A3000
RJAA 202038Z 29001KT 0400 R16R/0300V0800U R16L/0500V0800U FZFG BKN001 M01/M01 Q1015 RMK 7ST001 A2999
RJAA 202030Z 32002KT 0400 R16R/0300N R16L/0350V0550U FZFG BKN001 M01/M01 Q1015 NOSIG RMK 7ST001 A2999
RJAA 202017Z 00000KT 0200 R16R/0250V0400N R16L/0400N FZFG BKN001 M01/M01 Q1015 RMK 7ST001 A2999
RJAA 202009Z 32002KT 0200 R16R/0250V0300N R16L/0300V0400N FZFG BKN001 M01/M01 Q1015 RMK 7ST001 A2998
RJAA 202000Z 32001KT 0200 R34L/0200V0300N R34R/0250V0300N FZFG BKN001 M01/M01 Q1015 NOSIG RMK 7ST001 A2998
RJAA 201930Z 32003KT 0100 R34L/0250N R34R/0300N FZFG BKN001 M00/M01 Q1015 NOSIG